createdAt,value
2024-05-09T00:00:35.560Z,80.28
2024-05-09T00:03:07.226Z,80.10
2024-05-09T00:05:34.159Z,79.95
2024-05-09T00:08:01.045Z,80.54
2024-05-09T00:10:35.405Z,79.79
2024-05-09T00:13:04.924Z,80.11
2024-05-09T00:15:33.171Z,80.73
2024-05-09T00:18:00.073Z,80.19
2024-05-09T00:20:35.102Z,80.62
2024-05-09T00:23:06.864Z,80.61
2024-05-09T00:25:33.862Z,81.09
2024-05-09T00:28:00.419Z,81.39
2024-05-09T00:30:33.607Z,80.13
2024-05-09T00:33:03.815Z,80.58
2024-05-09T00:35:31.012Z,81.47
2024-05-09T00:37:57.824Z,80.69
2024-05-09T00:40:35.137Z,80.28
2024-05-09T00:43:06.346Z,81.05
2024-05-09T00:45:34.799Z,80.08
2024-05-09T00:48:04.859Z,81.03
2024-05-09T00:50:36.603Z,80.62
2024-05-09T00:53:06.716Z,81.02
2024-05-09T00:55:37.653Z,81.15
2024-05-09T00:58:05.193Z,82.27
2024-05-09T01:00:38.514Z,80.58
2024-05-09T01:03:08.205Z,80.70
2024-05-09T01:05:35.732Z,81.31
2024-05-09T01:08:03.119Z,81.63
2024-05-09T01:10:34.479Z,80.58
2024-05-09T01:13:03.584Z,81.28
2024-05-09T01:15:30.450Z,82.14
2024-05-09T01:17:58.250Z,81.31
2024-05-09T01:20:36.545Z,82.31
2024-05-09T01:23:08.827Z,82.41
2024-05-09T01:25:35.662Z,82.35
2024-05-09T01:28:02.334Z,81.02
2024-05-09T01:30:34.605Z,82.33
2024-05-09T01:33:04.183Z,82.57
2024-05-09T01:35:31.218Z,82.26
2024-05-09T01:37:57.938Z,82.33
2024-05-09T01:40:33.550Z,82.16
2024-05-09T01:43:04.897Z,81.76
2024-05-09T01:45:31.697Z,81.19
2024-05-09T01:47:58.794Z,81.61
2024-05-09T01:50:36.994Z,82.25
2024-05-09T01:53:07.567Z,82.30
2024-05-09T01:55:34.286Z,82.26
2024-05-09T01:58:00.879Z,82.46
2024-05-09T02:00:37.616Z,82.28
2024-05-09T02:03:10.003Z,82.20
2024-05-09T02:05:37.679Z,82.18
2024-05-09T02:08:05.302Z,82.14
2024-05-09T02:10:33.058Z,82.46
2024-05-09T02:13:00.108Z,82.23
2024-05-09T02:15:26.891Z,83.22
2024-05-09T02:17:53.680Z,82.96
2024-05-09T02:20:30.097Z,83.11
2024-05-09T02:23:03.815Z,83.42
2024-05-09T02:25:30.953Z,82.36
2024-05-09T02:27:57.497Z,82.35
2024-05-09T02:30:31.069Z,82.31
2024-05-09T02:33:05.844Z,81.88
2024-05-09T02:35:32.775Z,81.77
2024-05-09T02:37:59.765Z,81.84
2024-05-09T02:40:35.451Z,81.63
2024-05-09T02:43:05.087Z,81.25
2024-05-09T02:45:31.807Z,81.93
2024-05-09T02:47:58.731Z,81.73
2024-05-09T02:50:33.718Z,81.66
2024-05-09T02:53:05.135Z,82.03
2024-05-09T02:55:32.059Z,81.15
2024-05-09T02:57:58.690Z,81.70
2024-05-09T03:00:34.465Z,81.51
2024-05-09T03:03:07.142Z,81.73
2024-05-09T03:05:34.187Z,82.15
2024-05-09T03:08:01.033Z,81.87
2024-05-09T03:10:29.237Z,82.26
2024-05-09T03:13:09.315Z,82.49
2024-05-09T03:15:36.648Z,82.29
2024-05-09T03:18:04.537Z,82.24
2024-05-09T03:20:34.843Z,81.93
2024-05-09T03:23:03.391Z,81.69
2024-05-09T03:25:30.244Z,81.34
2024-05-09T03:27:56.891Z,81.98
2024-05-09T03:30:38.026Z,82.16
2024-05-09T03:33:18.057Z,81.92
2024-05-09T03:35:46.652Z,81.86
2024-05-09T03:38:14.112Z,82.26
2024-05-09T03:40:47.801Z,81.93
2024-05-09T03:43:14.861Z,81.97
2024-05-09T03:45:45.519Z,81.78
2024-05-09T03:48:12.762Z,81.64
2024-05-09T03:50:39.694Z,81.35
2024-05-09T03:53:11.291Z,82.23
2024-05-09T03:55:38.180Z,81.72
2024-05-09T03:58:05.089Z,81.68
2024-05-09T04:00:37.750Z,81.60
2024-05-09T04:03:09.304Z,81.58
2024-05-09T04:05:39.773Z,81.90
2024-05-09T04:08:07.387Z,82.15
2024-05-09T04:10:35.109Z,81.84
2024-05-09T04:13:03.462Z,81.36
2024-05-09T04:15:30.637Z,81.71
2024-05-09T04:17:57.497Z,81.29
2024-05-09T04:20:33.714Z,81.78
2024-05-09T04:23:06.239Z,81.64
2024-05-09T04:25:33.124Z,82.23
2024-05-09T04:27:59.711Z,81.89
2024-05-09T04:30:34.775Z,82.11
2024-05-09T04:33:07.134Z,81.99
2024-05-09T04:35:35.299Z,82.06
2024-05-09T04:38:02.076Z,83.14
2024-05-09T04:40:33.884Z,82.60
2024-05-09T04:43:03.891Z,81.28
2024-05-09T04:45:30.622Z,82.33
2024-05-09T04:47:57.679Z,82.18
2024-05-09T04:50:33.897Z,82.02
2024-05-09T04:53:04.909Z,82.05
2024-05-09T04:55:32.294Z,81.10
2024-05-09T04:57:58.860Z,80.73
2024-05-09T05:00:34.445Z,81.46
2024-05-09T05:03:13.809Z,81.46
2024-05-09T05:05:42.765Z,80.76
2024-05-09T05:08:13.379Z,80.47
2024-05-09T05:10:40.833Z,80.44
2024-05-09T05:13:17.909Z,80.03
2024-05-09T05:15:57.266Z,80.19
2024-05-09T05:18:25.960Z,80.04
2024-05-09T05:20:53.506Z,80.07
2024-05-09T05:23:21.606Z,80.17
2024-05-09T05:25:49.965Z,80.66
2024-05-09T05:28:17.488Z,80.10
2024-05-09T05:30:44.568Z,80.66
2024-05-09T05:33:16.060Z,80.31
2024-05-09T05:35:43.268Z,80.21
2024-05-09T05:38:11.000Z,80.01
2024-05-09T05:40:39.063Z,80.42
2024-05-09T05:43:08.661Z,79.71
2024-05-09T05:45:35.662Z,80.17
2024-05-09T05:48:06.609Z,79.69
2024-05-09T05:50:36.940Z,79.23
2024-05-09T05:53:09.175Z,79.30
2024-05-09T05:55:37.444Z,78.41
2024-05-09T05:58:04.441Z,78.69
2024-05-09T06:00:38.144Z,78.32
2024-05-09T06:03:07.587Z,78.14
2024-05-09T06:05:35.858Z,77.80
2024-05-09T06:08:02.569Z,78.51
2024-05-09T06:10:37.485Z,77.23
2024-05-09T06:13:07.084Z,76.26
2024-05-09T06:15:33.750Z,75.35
2024-05-09T06:18:00.586Z,74.66
2024-05-09T06:20:35.051Z,76.38
2024-05-09T06:23:04.889Z,75.57
2024-05-09T06:25:31.848Z,73.27
2024-05-09T06:28:00.340Z,72.84
2024-05-09T06:30:36.570Z,72.35
2024-05-09T06:33:07.693Z,71.55
2024-05-09T06:35:34.977Z,71.16
2024-05-09T06:38:01.882Z,69.83
2024-05-09T06:40:36.535Z,70.57
2024-05-09T06:43:10.136Z,71.02
2024-05-09T06:45:37.033Z,69.57
2024-05-09T06:48:04.018Z,69.63
2024-05-09T06:50:36.861Z,69.44
2024-05-09T06:53:05.149Z,69.06
2024-05-09T06:55:31.869Z,69.29
2024-05-09T06:57:58.406Z,67.22
2024-05-09T07:00:30.938Z,65.67
2024-05-09T07:03:13.648Z,66.82
2024-05-09T07:05:43.052Z,66.42
2024-05-09T07:08:09.917Z,65.76
2024-05-09T07:10:37.187Z,64.68
2024-05-09T07:13:14.028Z,65.09
2024-05-09T07:15:41.849Z,63.56
2024-05-09T07:18:13.215Z,63.94
2024-05-09T07:20:40.300Z,64.28
2024-05-09T07:23:11.171Z,62.47
2024-05-09T07:25:38.615Z,63.51
2024-05-09T07:28:05.857Z,62.97
2024-05-09T07:30:34.496Z,62.83
2024-05-09T07:33:03.099Z,62.06
2024-05-09T07:35:30.902Z,60.66
2024-05-09T07:37:57.786Z,61.02
2024-05-09T07:40:32.737Z,61.22
2024-05-09T07:43:07.646Z,61.46
2024-05-09T07:52:32.483Z,58.53
2024-05-09T07:53:39.604Z,58.18
2024-05-09T07:56:11.877Z,57.07
2024-05-09T07:58:39.366Z,58.07
2024-05-09T08:01:06.245Z,56.63
2024-05-09T08:03:33.235Z,56.45
2024-05-09T08:06:00.038Z,56.15
2024-05-09T08:08:26.649Z,56.08
2024-05-09T08:10:53.447Z,54.77
2024-05-09T08:13:20.297Z,55.21
2024-05-09T08:15:46.991Z,54.46
2024-05-09T08:18:13.791Z,54.37
2024-05-09T08:20:41.997Z,54.84
2024-05-09T08:23:08.768Z,53.12
2024-05-09T08:25:35.360Z,54.50
2024-05-09T08:28:04.610Z,54.59
2024-05-09T08:30:36.725Z,53.04
2024-05-09T08:33:05.863Z,52.87
2024-05-09T08:35:33.194Z,53.12
2024-05-09T08:37:59.907Z,51.64
2024-05-09T08:40:34.077Z,51.04
2024-05-09T08:43:06.751Z,50.52
2024-05-09T08:45:34.885Z,50.80
2024-05-09T08:48:05.778Z,51.53
2024-05-09T08:50:38.774Z,50.74
2024-05-09T08:53:07.843Z,51.18
2024-05-09T08:55:37.369Z,50.90
2024-05-09T08:58:07.562Z,48.68
2024-05-09T09:00:37.425Z,49.37
2024-05-09T09:03:09.361Z,50.15
2024-05-09T09:05:39.095Z,48.78
2024-05-09T09:08:08.235Z,48.72
2024-05-09T09:10:35.751Z,47.28
2024-05-09T09:13:04.758Z,47.90
2024-05-09T09:15:32.111Z,48.12
2024-05-09T09:18:02.137Z,48.76
2024-05-09T09:20:35.816Z,47.85
2024-05-09T09:23:04.531Z,49.07
2024-05-09T09:25:31.536Z,47.82
2024-05-09T09:27:58.806Z,46.82
2024-05-09T09:30:36.195Z,44.38
2024-05-09T09:33:08.101Z,46.12
2024-05-09T09:35:36.115Z,45.93
2024-05-09T09:38:03.449Z,45.25
2024-05-09T09:40:41.094Z,50.34
2024-05-09T09:43:18.052Z,50.07
2024-05-09T09:45:46.381Z,48.77
2024-05-09T09:48:14.766Z,46.82
2024-05-09T09:50:42.240Z,47.78
2024-05-09T09:53:10.672Z,47.91
2024-05-09T09:55:38.012Z,45.81
2024-05-09T09:58:06.398Z,43.64
2024-05-09T10:00:34.535Z,44.35
2024-05-09T10:03:02.218Z,42.77
2024-05-09T10:05:30.011Z,43.67
2024-05-09T10:07:58.386Z,41.71
2024-05-09T10:10:31.987Z,43.10
2024-05-09T10:13:03.698Z,43.20
2024-05-09T10:15:42.720Z,42.73
2024-05-09T10:18:10.529Z,40.31
2024-05-09T10:20:46.830Z,43.60
2024-05-09T10:23:36.231Z,42.62
2024-05-09T10:26:06.423Z,42.22
2024-05-09T10:28:37.904Z,43.56
2024-05-09T10:31:12.965Z,44.29
2024-05-09T10:33:51.855Z,44.99
2024-05-09T10:36:23.744Z,45.24
2024-05-09T10:38:52.151Z,42.74
2024-05-09T10:41:19.683Z,45.10
2024-05-09T10:43:47.296Z,46.03
2024-05-09T10:46:18.867Z,46.19
2024-05-09T10:48:45.870Z,46.40
2024-05-09T10:51:13.421Z,46.04
2024-05-09T10:53:44.528Z,46.67
2024-05-09T10:56:13.007Z,47.18
2024-05-09T10:58:39.542Z,45.17
2024-05-09T11:01:07.395Z,44.85
2024-05-09T11:03:35.534Z,44.89
2024-05-09T11:06:02.692Z,44.05
2024-05-09T11:08:36.903Z,45.66
2024-05-09T11:11:07.447Z,44.37
2024-05-09T11:13:39.218Z,45.36
2024-05-09T11:16:20.772Z,45.22
2024-05-09T11:18:58.087Z,47.31
2024-05-09T11:21:25.320Z,46.91
2024-05-09T11:23:52.344Z,45.96
2024-05-09T11:26:21.390Z,45.67
2024-05-09T11:28:48.221Z,46.50
2024-05-09T11:31:14.888Z,45.72
2024-05-09T11:33:44.579Z,45.32
2024-05-09T11:36:11.372Z,46.26
2024-05-09T11:38:37.994Z,47.08
2024-05-09T11:41:05.501Z,45.79
2024-05-09T11:43:32.983Z,45.40
2024-05-09T11:46:00.281Z,47.48
2024-05-09T11:48:27.419Z,46.41
2024-05-09T11:50:55.533Z,46.33
2024-05-09T11:53:22.429Z,44.60
2024-05-09T11:55:49.116Z,45.34
2024-05-09T11:58:17.804Z,45.02
2024-05-09T12:00:45.266Z,45.28
2024-05-09T12:03:11.992Z,46.07
2024-05-09T12:05:38.680Z,46.64
2024-05-09T12:08:06.528Z,44.89
2024-05-09T12:10:35.610Z,46.61
2024-05-09T12:13:05.073Z,44.74
2024-05-09T12:15:33.872Z,44.30
2024-05-09T12:18:03.358Z,46.83
2024-05-09T12:20:36.695Z,44.67
2024-05-09T12:23:05.918Z,46.44
2024-05-09T12:25:32.531Z,45.58
2024-05-09T12:27:59.540Z,45.83
2024-05-09T12:30:35.303Z,46.69
2024-05-09T12:33:06.037Z,47.25
2024-05-09T12:35:32.989Z,43.44
2024-05-09T12:37:59.673Z,44.40
2024-05-09T12:40:34.471Z,44.77
2024-05-09T12:43:04.834Z,44.51
2024-05-09T12:45:31.946Z,43.60
2024-05-09T12:47:58.926Z,43.85
2024-05-09T12:50:31.981Z,43.07
2024-05-09T12:53:00.950Z,46.62
2024-05-09T12:55:28.540Z,43.01
2024-05-09T12:57:57.304Z,43.00
2024-05-09T13:00:31.079Z,42.58
2024-05-09T13:03:00.726Z,41.53
2024-05-09T13:05:27.797Z,41.51
2024-05-09T13:07:56.217Z,42.08
2024-05-09T13:10:29.408Z,43.08
2024-05-09T13:12:59.575Z,43.68
2024-05-09T13:15:26.536Z,45.03
2024-05-09T13:17:53.473Z,43.90
2024-05-09T13:20:29.027Z,46.55
2024-05-09T13:23:02.162Z,46.27
2024-05-09T13:25:28.859Z,46.01
2024-05-09T13:27:56.330Z,45.66
2024-05-09T13:30:29.748Z,45.89
2024-05-09T13:33:05.619Z,48.16
2024-05-09T13:35:34.378Z,48.12
2024-05-09T13:38:01.980Z,49.01
2024-05-09T13:40:33.623Z,49.26
2024-05-09T13:43:03.323Z,47.20
2024-05-09T13:45:30.137Z,47.75
2024-05-09T13:47:57.229Z,48.76
2024-05-09T13:50:32.931Z,48.17
2024-05-09T13:53:02.697Z,47.76
2024-05-09T13:55:29.282Z,47.68
2024-05-09T13:57:56.205Z,48.24
2024-05-09T14:00:37.321Z,49.19
2024-05-09T14:03:10.160Z,48.65
2024-05-09T14:05:36.993Z,50.36
2024-05-09T14:08:04.172Z,50.88
2024-05-09T14:10:32.137Z,50.77
2024-05-09T14:13:00.791Z,48.52
2024-05-09T14:15:27.814Z,48.43
2024-05-09T14:17:55.400Z,49.13
2024-05-09T14:20:30.355Z,48.39
2024-05-09T14:22:59.373Z,47.98
2024-05-09T14:25:28.394Z,48.26
2024-05-09T14:27:56.102Z,46.96
2024-05-09T14:30:30.553Z,46.99
2024-05-09T14:33:03.465Z,46.38
2024-05-09T14:35:30.175Z,47.51
2024-05-09T14:37:56.876Z,49.44
2024-05-09T14:40:36.636Z,47.91
2024-05-09T14:43:08.471Z,46.50
2024-05-09T14:45:35.541Z,48.87
2024-05-09T14:48:03.333Z,47.21
2024-05-09T14:50:36.018Z,45.22
2024-05-09T14:53:06.769Z,44.86
2024-05-09T14:55:35.719Z,43.94
2024-05-09T14:58:02.879Z,43.95
2024-05-09T15:00:35.428Z,44.76
2024-05-09T15:03:03.737Z,46.25
2024-05-09T15:05:30.516Z,43.75
2024-05-09T15:07:58.023Z,46.90
2024-05-09T15:10:33.667Z,44.82
2024-05-09T15:13:02.940Z,44.26
2024-05-09T15:15:29.916Z,44.51
2024-05-09T15:17:56.993Z,46.07
2024-05-09T15:20:31.276Z,46.66
2024-05-09T15:23:02.168Z,44.37
2024-05-09T15:25:28.978Z,46.65
2024-05-09T15:27:55.722Z,47.92
2024-05-09T15:32:51.931Z,47.62
2024-05-09T15:35:18.621Z,47.07
2024-05-09T15:37:48.176Z,47.36
2024-05-09T15:40:18.920Z,49.02
2024-05-09T15:42:53.286Z,50.89
2024-05-09T15:45:19.957Z,50.32
2024-05-09T15:47:46.774Z,51.72
2024-05-09T15:50:20.441Z,51.68
2024-05-09T15:52:55.312Z,49.13
2024-05-09T15:55:21.919Z,48.68
2024-05-09T15:57:48.622Z,48.50
2024-05-09T16:00:24.703Z,48.96
2024-05-09T16:02:59.917Z,48.17
2024-05-09T16:05:26.921Z,44.50
2024-05-09T16:07:53.915Z,44.52
2024-05-09T16:10:25.850Z,48.34
2024-05-09T16:12:58.590Z,47.79
2024-05-09T16:15:25.244Z,48.39
2024-05-09T16:17:51.940Z,49.99
2024-05-09T16:20:29.562Z,48.35
2024-05-09T16:23:04.854Z,51.84
2024-05-09T16:25:31.559Z,49.26
2024-05-09T16:27:58.357Z,47.21
2024-05-09T16:30:31.777Z,48.98
2024-05-09T16:33:01.970Z,50.08
2024-05-09T16:35:28.745Z,45.72
2024-05-09T16:37:55.480Z,48.97
2024-05-09T16:40:30.064Z,47.09
2024-05-09T16:43:04.437Z,49.12
2024-05-09T16:45:31.398Z,50.44
2024-05-09T16:47:59.572Z,48.62
2024-05-09T16:50:31.569Z,48.29
2024-05-09T16:53:00.437Z,47.62
2024-05-09T16:55:27.364Z,46.86
2024-05-09T16:57:55.108Z,48.73
2024-05-09T17:00:31.609Z,48.97
2024-05-09T17:03:07.212Z,49.65
2024-05-09T17:05:34.889Z,49.26
2024-05-09T17:08:02.090Z,49.43
2024-05-09T17:10:33.057Z,49.56
2024-05-09T17:13:03.211Z,49.55
2024-05-09T17:15:31.026Z,48.14
2024-05-09T17:17:58.078Z,48.06
2024-05-09T17:20:31.865Z,48.98
2024-05-09T17:23:02.448Z,48.25
2024-05-09T17:25:29.355Z,47.05
2024-05-09T17:27:56.683Z,46.10
2024-05-09T17:30:29.423Z,46.53
2024-05-09T17:33:03.219Z,48.00
2024-05-09T17:35:29.911Z,47.66
2024-05-09T17:37:56.876Z,47.40
2024-05-09T17:42:53.329Z,48.87
2024-05-09T17:45:20.666Z,49.35
2024-05-09T17:47:47.711Z,49.89
2024-05-09T17:50:20.997Z,50.31
2024-05-09T17:52:53.705Z,51.29
2024-05-09T17:55:20.376Z,52.31
2024-05-09T17:57:47.052Z,52.98
2024-05-09T18:00:17.449Z,54.20
2024-05-09T18:02:48.287Z,55.12
2024-05-09T18:05:15.039Z,54.11
2024-05-09T18:07:41.752Z,55.22
2024-05-09T18:10:19.008Z,56.66
2024-05-09T18:12:49.050Z,56.49
2024-05-09T18:15:15.657Z,56.74
2024-05-09T18:17:42.656Z,59.88
2024-05-09T18:20:14.141Z,58.90
2024-05-09T18:22:46.244Z,58.40
2024-05-09T18:25:13.149Z,55.88
2024-05-09T18:27:39.795Z,56.80
2024-05-09T18:30:09.300Z,55.41
2024-05-09T18:32:36.228Z,59.42
2024-05-09T18:35:03.241Z,59.81
2024-05-09T18:37:29.967Z,59.09
2024-05-09T18:39:56.689Z,63.95
2024-05-09T18:42:23.235Z,60.84
2024-05-09T18:44:50.658Z,61.08
2024-05-09T18:47:20.010Z,60.45
2024-05-09T18:49:46.936Z,59.95
2024-05-09T18:52:13.631Z,63.07
2024-05-09T18:54:40.303Z,62.07
2024-05-09T18:57:06.881Z,61.76
2024-05-09T18:59:33.558Z,62.98
2024-05-09T19:02:00.265Z,65.87
2024-05-09T19:04:27.133Z,67.70
2024-05-09T19:06:53.949Z,63.54
2024-05-09T19:09:20.524Z,62.78
2024-05-09T19:11:47.115Z,63.44
2024-05-09T19:14:13.877Z,64.86
2024-05-09T19:16:41.892Z,64.85
2024-05-09T19:19:09.871Z,65.85
2024-05-09T19:21:39.113Z,66.34
2024-05-09T19:24:07.842Z,65.11
2024-05-09T19:26:34.572Z,66.63
2024-05-09T19:29:01.121Z,64.40
2024-05-09T19:31:27.761Z,65.71
2024-05-09T19:33:54.408Z,65.71
2024-05-09T19:36:21.027Z,65.37
2024-05-09T19:38:48.772Z,67.55
2024-05-09T19:41:15.426Z,66.38
2024-05-09T19:43:41.994Z,67.89
2024-05-09T19:46:08.657Z,66.32
2024-05-09T19:48:35.505Z,69.15
2024-05-09T19:51:02.966Z,69.13
2024-05-09T19:53:29.598Z,67.78
2024-05-09T19:55:57.759Z,70.32
2024-05-09T19:58:24.908Z,69.42
2024-05-09T20:00:51.762Z,69.02
2024-05-09T20:03:18.442Z,69.98
2024-05-09T20:05:46.735Z,71.22
2024-05-09T20:08:13.873Z,69.96
2024-05-09T20:10:40.520Z,70.96
2024-05-09T20:13:08.281Z,71.10
2024-05-09T20:15:36.643Z,71.73
2024-05-09T20:18:04.321Z,71.41
2024-05-09T20:20:37.692Z,70.74
2024-05-09T20:23:08.517Z,71.64
2024-05-09T20:25:35.096Z,71.94
2024-05-09T20:28:01.805Z,71.84
2024-05-09T20:30:32.439Z,72.22
2024-05-09T20:33:03.550Z,72.82
2024-05-09T20:35:33.915Z,72.41
2024-05-09T20:38:01.802Z,72.58
2024-05-09T20:40:33.822Z,72.11
2024-05-09T20:43:04.097Z,72.65
2024-05-09T20:45:30.948Z,74.38
2024-05-09T20:47:57.966Z,73.24
2024-05-09T20:50:35.543Z,74.89
2024-05-09T20:53:14.516Z,73.85
2024-05-09T20:55:43.083Z,74.29
2024-05-09T20:58:10.478Z,74.29
2024-05-09T21:00:40.959Z,73.89
2024-05-09T21:03:11.471Z,75.02
2024-05-09T21:05:38.954Z,74.05
2024-05-09T21:08:06.184Z,75.11
2024-05-09T21:10:34.095Z,74.21
2024-05-09T21:13:03.016Z,74.57
2024-05-09T21:15:30.602Z,76.14
2024-05-09T21:17:57.412Z,76.10
2024-05-09T21:20:30.584Z,74.88
2024-05-09T21:22:58.903Z,76.00
2024-05-09T21:25:25.791Z,76.10
2024-05-09T21:27:52.743Z,75.89
2024-05-09T21:30:31.399Z,75.49
2024-05-09T21:33:05.862Z,76.33
2024-05-09T21:35:32.658Z,75.87
2024-05-09T21:37:59.265Z,76.97
2024-05-09T21:40:33.346Z,75.24
2024-05-09T21:43:02.414Z,75.84
2024-05-09T21:45:29.424Z,75.95
2024-05-09T21:47:56.224Z,75.55
2024-05-09T21:50:28.540Z,76.25
2024-05-09T21:53:02.844Z,77.14
2024-05-09T21:55:30.110Z,77.28
2024-05-09T21:57:57.046Z,78.36
2024-05-09T22:00:32.019Z,77.61
2024-05-09T22:03:03.138Z,77.45
2024-05-09T22:05:30.106Z,75.97
2024-05-09T22:07:57.250Z,76.21
2024-05-09T22:10:30.538Z,75.92
2024-05-09T22:13:00.822Z,76.60
2024-05-09T22:15:27.449Z,76.57
2024-05-09T22:17:56.625Z,77.08
2024-05-09T22:20:32.891Z,76.51
2024-05-09T22:23:03.295Z,76.47
2024-05-09T22:25:31.150Z,77.85
2024-05-09T22:27:58.650Z,76.81
2024-05-09T22:30:34.045Z,76.66
2024-05-09T22:33:05.195Z,76.60
2024-05-09T22:35:32.000Z,77.53
2024-05-09T22:37:58.602Z,78.14
2024-05-09T22:40:37.757Z,77.39
2024-05-09T22:43:12.311Z,77.83
2024-05-09T22:45:39.283Z,78.35
2024-05-09T22:48:06.681Z,78.91
2024-05-09T22:50:33.875Z,78.06
2024-05-09T22:53:00.985Z,78.62
2024-05-09T22:55:27.697Z,77.31
2024-05-09T22:57:54.332Z,78.34
2024-05-09T23:00:29.271Z,77.60
2024-05-09T23:02:59.800Z,78.46
2024-05-09T23:05:26.703Z,79.16
2024-05-09T23:07:53.574Z,78.55
2024-05-09T23:10:27.732Z,77.41
2024-05-09T23:12:59.154Z,77.64
2024-05-09T23:15:25.836Z,78.78
2024-05-09T23:17:52.591Z,79.37
2024-05-09T23:20:29.781Z,78.09
2024-05-09T23:23:03.738Z,79.16
2024-05-09T23:25:30.417Z,78.55
2024-05-09T23:27:57.104Z,78.77
2024-05-09T23:30:33.301Z,78.45
2024-05-09T23:33:05.678Z,78.40
2024-05-09T23:35:32.407Z,77.98
2024-05-09T23:37:59.095Z,77.90
2024-05-09T23:40:36.803Z,78.48
2024-05-09T23:43:06.816Z,77.69
2024-05-09T23:45:33.658Z,78.44
2024-05-09T23:48:00.727Z,79.65
2024-05-09T23:50:34.302Z,79.04
2024-05-09T23:53:04.238Z,79.52
2024-05-09T23:55:31.805Z,79.04
2024-05-09T23:57:58.941Z,78.61
